Time,TemperatureF,DewpointF,PressureIn,WindDirection,WindDirectionDegrees,WindSpeedMPH,WindSpeedGustMPH,Humidity,HourlyPrecipIn,Conditions,Clouds,dailyrainin,SoftwareType,DateUTC
2013-12-26 00:07:00,28.9,26.0,30.36,WSW,247,0.0,1.0,89,0.00,,,0.00,weatherlink.com 1.10,2013-12-26 06:07:00,
2013-12-26 00:22:00,28.9,26.0,30.36,SW,232,1.0,2.0,89,0.00,,,0.00,weatherlink.com 1.10,2013-12-26 06:22:00,
2013-12-26 00:37:00,28.8,26.0,30.36,West,259,1.0,2.0,89,0.00,,,0.00,weatherlink.com 1.10,2013-12-26 06:37:00,
2013-12-26 00:52:00,28.8,26.0,30.36,West,264,1.0,2.0,89,0.00,,,0.00,weatherlink.com 1.10,2013-12-26 06:52:00,
2013-12-26 01:07:00,29.0,26.0,30.36,WSW,248,1.0,2.0,89,0.00,,,0.00,weatherlink.com 1.10,2013-12-26 07:07:00,
2013-12-26 01:22:00,28.9,26.0,30.35,WSW,253,0.0,1.0,89,0.00,,,0.00,weatherlink.com 1.10,2013-12-26 07:22:00,
2013-12-26 01:37:00,28.7,26.0,30.36,WSW,253,0.0,1.0,90,0.00,,,0.00,weatherlink.com 1.10,2013-12-26 07:37:00,
2013-12-26 01:52:00,28.5,26.0,30.36,WSW,256,0.0,1.0,89,0.00,,,0.00,weatherlink.com 1.10,2013-12-26 07:52:00,
2013-12-26 02:07:00,27.7,25.0,30.35,WSW,256,0.0,0.0,89,0.00,,,0.00,weatherlink.com 1.10,2013-12-26 08:07:00,
2013-12-26 02:22:00,26.5,24.0,30.35,WSW,256,0.0,1.0,90,0.00,,,0.00,weatherlink.com 1.10,2013-12-26 08:22:00,
2013-12-26 02:37:00,26.0,24.0,30.36,WSW,256,0.0,1.0,92,0.00,,,0.00,weatherlink.com 1.10,2013-12-26 08:37:00,
2013-12-26 02:52:00,25.9,24.0,30.36,WSW,250,0.0,1.0,92,0.00,,,0.00,weatherlink.com 1.10,2013-12-26 08:52:00,
2013-12-26 03:07:00,26.0,24.0,30.35,WSW,246,0.0,1.0,92,0.00,,,0.00,weatherlink.com 1.10,2013-12-26 09:07:00,
2013-12-26 03:22:00,25.7,24.0,30.34,SSE,158,0.0,1.0,92,0.00,,,0.00,weatherlink.com 1.10,2013-12-26 09:22:00,
2013-12-26 03:37:00,25.5,24.0,30.33,SE,137,1.0,2.0,93,0.00,,,0.00,weatherlink.com 1.10,2013-12-26 09:37:00,
2013-12-26 03:52:00,25.5,24.0,30.33,SSE,162,1.0,2.0,93,0.00,,,0.00,weatherlink.com 1.10,2013-12-26 09:52:00,
2013-12-26 04:07:00,25.5,24.0,30.32,SSE,150,4.0,4.0,93,0.00,,,0.00,weatherlink.com 1.10,2013-12-26 10:07:00,
2013-12-26 04:22:00,25.6,24.0,30.32,SSE,162,1.0,4.0,93,0.00,,,0.00,weatherlink.com 1.10,2013-12-26 10:22:00,
2013-12-26 04:37:00,25.6,24.0,30.32,SW,215,1.0,3.0,93,0.00,,,0.00,weatherlink.com 1.10,2013-12-26 10:37:00,
2013-12-26 04:53:00,25.4,23.0,30.32,SSE,152,1.0,3.0,92,0.00,,,0.00,weatherlink.com 1.10,2013-12-26 10:53:00,
2013-12-26 05:08:00,25.4,23.0,30.31,SSW,208,3.0,3.0,92,0.00,,,0.00,weatherlink.com 1.10,2013-12-26 11:08:00,
2013-12-26 05:23:00,25.5,24.0,30.30,South,181,1.0,5.0,93,0.00,,,0.00,weatherlink.com 1.10,2013-12-26 11:23:00,
2013-12-26 05:39:00,25.7,24.0,30.31,SE,135,1.0,4.0,92,0.00,,,0.00,weatherlink.com 1.10,2013-12-26 11:39:00,
2013-12-26 05:53:00,25.5,23.0,30.31,South,183,2.0,4.0,91,0.00,,,0.00,weatherlink.com 1.10,2013-12-26 11:53:00,
2013-12-26 06:08:00,25.1,23.0,30.31,SSW,200,1.0,5.0,91,0.00,,,0.00,weatherlink.com 1.10,2013-12-26 12:08:00,
2013-12-26 06:23:00,24.6,22.0,30.31,SSE,152,2.0,3.0,91,0.00,,,0.00,weatherlink.com 1.10,2013-12-26 12:23:00,
2013-12-26 06:38:00,24.7,23.0,30.31,South,172,2.0,4.0,92,0.00,,,0.00,weatherlink.com 1.10,2013-12-26 12:38:00,
2013-12-26 06:53:00,25.1,23.0,30.30,SSE,150,3.0,4.0,92,0.00,,,0.00,weatherlink.com 1.10,2013-12-26 12:53:00,
2013-12-26 07:08:00,25.5,23.0,30.30,SE,146,1.0,4.0,91,0.00,,,0.00,weatherlink.com 1.10,2013-12-26 13:08:00,
2013-12-26 07:23:00,26.0,24.0,30.31,SSE,162,1.0,5.0,90,0.00,,,0.00,weatherlink.com 1.10,2013-12-26 13:23:00,
2013-12-26 07:39:00,26.5,24.0,30.31,SSE,166,2.0,5.0,90,0.00,,,0.00,weatherlink.com 1.10,2013-12-26 13:39:00,
2013-12-26 07:53:00,26.7,24.0,30.31,South,177,3.0,6.0,89,0.00,,,0.00,weatherlink.com 1.10,2013-12-26 13:53:00,
2013-12-26 08:08:00,27.1,24.0,30.31,South,177,2.0,8.0,89,0.00,,,0.00,weatherlink.com 1.10,2013-12-26 14:08:00,
2013-12-26 08:23:00,27.6,25.0,30.31,South,171,2.0,6.0,88,0.00,,,0.00,weatherlink.com 1.10,2013-12-26 14:23:00,
2013-12-26 08:38:00,28.2,25.0,30.31,SSW,200,0.0,4.0,87,0.00,,,0.00,weatherlink.com 1.10,2013-12-26 14:38:00,
2013-12-26 08:53:00,29.2,26.0,30.31,SSE,153,2.0,5.0,86,0.00,,,0.00,weatherlink.com 1.10,2013-12-26 14:53:00,
2013-12-26 09:08:00,31.0,27.0,30.31,South,184,2.0,5.0,84,0.00,,,0.00,weatherlink.com 1.10,2013-12-26 15:08:00,
2013-12-26 09:23:00,33.2,28.0,30.31,SSW,207,4.0,12.0,80,0.00,,,0.00,weatherlink.com 1.10,2013-12-26 15:23:00,
2013-12-26 09:38:00,34.9,28.0,30.31,SSE,166,9.0,11.0,77,0.00,,,0.00,weatherlink.com 1.10,2013-12-26 15:38:00,
2013-12-26 09:53:00,36.3,29.0,30.31,SW,231,4.0,12.0,75,0.00,,,0.00,weatherlink.com 1.10,2013-12-26 15:53:00,
2013-12-26 10:08:00,37.6,29.0,30.32,SSW,201,2.0,8.0,72,0.00,,,0.00,weatherlink.com 1.10,2013-12-26 16:08:00,
2013-12-26 10:23:00,38.7,30.0,30.31,SSE,161,3.0,7.0,70,0.00,,,0.00,weatherlink.com 1.10,2013-12-26 16:23:00,
2013-12-26 10:38:00,39.0,30.0,30.30,ESE,121,5.0,10.0,69,0.00,,,0.00,weatherlink.com 1.10,2013-12-26 16:38:00,
2013-12-26 10:53:00,39.4,30.0,30.31,South,172,4.0,9.0,69,0.01,,,0.01,weatherlink.com 1.10,2013-12-26 16:53:00,
2013-12-26 11:08:00,39.7,30.0,30.30,SW,219,2.0,12.0,69,0.01,,,0.01,weatherlink.com 1.10,2013-12-26 17:08:00,
2013-12-26 11:23:00,40.7,31.0,30.29,SSW,198,3.0,6.0,68,0.02,,,0.02,weatherlink.com 1.10,2013-12-26 17:23:00,
2013-12-26 11:38:00,41.7,31.0,30.29,South,179,4.0,9.0,66,0.03,,,0.03,weatherlink.com 1.10,2013-12-26 17:38:00,
2013-12-26 11:54:00,42.9,31.0,30.27,SW,225,5.0,15.0,63,0.03,,,0.04,weatherlink.com 1.10,2013-12-26 17:54:00,
2013-12-26 12:09:00,44.0,30.0,30.25,ENE,73,4.0,12.0,59,0.04,,,0.06,weatherlink.com 1.10,2013-12-26 18:09:00,
2013-12-26 12:24:00,44.7,31.0,30.24,SSE,151,2.0,12.0,58,0.06,,,0.08,weatherlink.com 1.10,2013-12-26 18:24:00,
2013-12-26 12:39:00,45.2,30.0,30.23,SSE,167,8.0,13.0,56,0.08,,,0.11,weatherlink.com 1.10,2013-12-26 18:39:00,
2013-12-26 12:54:00,45.4,30.0,30.22,SSW,193,3.0,11.0,56,0.09,,,0.13,weatherlink.com 1.10,2013-12-26 18:54:00,
2013-12-26 13:09:00,45.5,30.0,30.22,SW,233,4.0,16.0,54,0.08,,,0.14,weatherlink.com 1.10,2013-12-26 19:09:00,
2013-12-26 13:24:00,46.3,30.0,30.21,SE,139,5.0,9.0,53,0.07,,,0.16,weatherlink.com 1.10,2013-12-26 19:24:00,
2013-12-26 13:39:00,47.1,31.0,30.21,WSW,246,3.0,12.0,53,0.06,,,0.17,weatherlink.com 1.10,2013-12-26 19:39:00,
2013-12-26 13:54:00,47.2,30.0,30.20,SSW,211,7.0,11.0,51,0.05,,,0.18,weatherlink.com 1.10,2013-12-26 19:54:00,
2013-12-26 14:09:00,47.2,30.0,30.20,South,184,3.0,14.0,52,0.06,,,0.20,weatherlink.com 1.10,2013-12-26 20:09:00,
2013-12-26 14:24:00,47.3,31.0,30.21,SW,231,2.0,13.0,53,0.05,,,0.21,weatherlink.com 1.10,2013-12-26 20:24:00,
2013-12-26 14:40:00,47.4,31.0,30.21,SSW,207,4.0,8.0,53,0.04,,,0.21,weatherlink.com 1.10,2013-12-26 20:40:00,
2013-12-26 14:54:00,47.3,31.0,30.20,West,275,4.0,10.0,53,0.04,,,0.22,weatherlink.com 1.10,2013-12-26 20:54:00,
2013-12-26 15:09:00,47.1,31.0,30.20,WSW,250,5.0,8.0,54,0.03,,,0.23,weatherlink.com 1.10,2013-12-26 21:09:00,
2013-12-26 15:24:00,46.7,31.0,30.21,SSW,200,2.0,9.0,55,0.03,,,0.24,weatherlink.com 1.10,2013-12-26 21:24:00,
2013-12-26 15:39:00,46.4,32.0,30.21,WSW,243,4.0,8.0,57,0.03,,,0.24,weatherlink.com 1.10,2013-12-26 21:39:00,
2013-12-26 15:54:00,46.1,32.0,30.21,SW,222,4.0,8.0,58,0.02,,,0.24,weatherlink.com 1.10,2013-12-26 21:54:00,
2013-12-26 16:09:00,45.8,32.0,30.22,South,191,1.0,6.0,59,0.02,,,0.25,weatherlink.com 1.10,2013-12-26 22:09:00,
2013-12-26 16:24:00,45.3,32.0,30.22,SE,145,4.0,7.0,60,0.01,,,0.25,weatherlink.com 1.10,2013-12-26 22:24:00,
2013-12-26 16:39:00,44.9,32.0,30.22,SW,232,1.0,7.0,61,0.01,,,0.25,weatherlink.com 1.10,2013-12-26 22:39:00,
2013-12-26 16:55:00,44.1,32.0,30.23,SSW,213,2.0,4.0,63,0.01,,,0.25,weatherlink.com 1.10,2013-12-26 22:55:00,
2013-12-26 17:09:00,43.3,32.0,30.23,SSW,211,1.0,3.0,64,0.01,,,0.26,weatherlink.com 1.10,2013-12-26 23:09:00,
2013-12-26 17:24:00,42.2,32.0,30.23,SW,217,1.0,3.0,67,0.01,,,0.26,weatherlink.com 1.10,2013-12-26 23:24:00,
2013-12-26 17:39:00,41.1,32.0,30.23,SE,138,0.0,2.0,69,0.01,,,0.26,weatherlink.com 1.10,2013-12-26 23:39:00,
2013-12-26 17:54:00,40.3,31.0,30.24,South,176,0.0,1.0,70,0.01,,,0.26,weatherlink.com 1.10,2013-12-26 23:54:00,
2013-12-26 18:09:00,39.3,31.0,30.25,SW,221,1.0,2.0,73,0.00,,,0.26,weatherlink.com 1.10,2013-12-27 00:09:00,
2013-12-26 18:24:00,39.3,32.0,30.24,SSW,210,1.0,2.0,74,0.00,,,0.26,weatherlink.com 1.10,2013-12-27 00:24:00,
2013-12-26 18:39:00,39.4,32.0,30.25,SW,228,0.0,2.0,74,0.00,,,0.26,weatherlink.com 1.10,2013-12-27 00:39:00,
2013-12-26 18:54:00,39.7,32.0,30.26,West,259,1.0,3.0,74,0.00,,,0.26,weatherlink.com 1.10,2013-12-27 00:54:00,
2013-12-26 19:09:00,39.4,32.0,30.26,West,264,1.0,3.0,75,0.00,,,0.26,weatherlink.com 1.10,2013-12-27 01:09:00,
2013-12-26 19:24:00,39.2,32.0,30.26,SW,231,0.0,2.0,75,0.00,,,0.26,weatherlink.com 1.10,2013-12-27 01:24:00,
2013-12-26 19:39:00,38.8,32.0,30.27,West,264,1.0,3.0,75,0.00,,,0.26,weatherlink.com 1.10,2013-12-27 01:39:00,
2013-12-26 19:54:00,38.1,31.0,30.27,WSW,255,0.0,2.0,76,0.00,,,0.26,weatherlink.com 1.10,2013-12-27 01:54:00,
2013-12-26 20:22:00,-999.0,-99.9,0.00,North,-999,-999.0,-999.0,-999,0.00,,,0.00,weatherlink.com 1.10,2013-12-27 02:22:00,
2013-12-26 20:37:00,35.7,30.0,30.29,SW,226,0.0,1.0,79,0.00,,,0.00,weatherlink.com 1.10,2013-12-27 02:37:00,
2013-12-26 20:52:00,34.1,29.0,30.28,SW,226,0.0,0.0,81,0.00,,,0.00,weatherlink.com 1.10,2013-12-27 02:52:00,
2013-12-26 21:07:00,32.8,29.0,30.29,SW,226,0.0,1.0,84,0.00,,,0.00,weatherlink.com 1.10,2013-12-27 03:07:00,
2013-12-26 21:22:00,32.0,28.0,30.29,SW,228,0.0,0.0,86,0.00,,,0.00,weatherlink.com 1.10,2013-12-27 03:22:00,
2013-12-26 21:37:00,32.1,28.0,30.30,SW,227,0.0,0.0,86,0.00,,,0.00,weatherlink.com 1.10,2013-12-27 03:37:00,
2013-12-26 21:52:00,31.4,28.0,30.30,SW,226,0.0,0.0,87,0.00,,,0.00,weatherlink.com 1.10,2013-12-27 03:52:00,
2013-12-26 22:22:00,33.6,29.0,30.30,West,259,1.0,3.0,84,0.00,,,0.00,weatherlink.com 1.10,2013-12-27 04:22:00,
2013-12-26 22:37:00,34.2,29.0,30.31,WSW,255,2.0,3.0,82,0.00,,,0.00,weatherlink.com 1.10,2013-12-27 04:37:00,
2013-12-26 22:52:00,34.0,29.0,30.31,SW,226,1.0,2.0,82,0.00,,,0.00,weatherlink.com 1.10,2013-12-27 04:52:00,
2013-12-26 23:07:00,33.7,29.0,30.32,West,260,0.0,1.0,82,0.00,,,0.00,weatherlink.com 1.10,2013-12-27 05:07:00,
2013-12-26 23:22:00,33.0,28.0,30.32,West,259,0.0,1.0,83,0.00,,,0.00,weatherlink.com 1.10,2013-12-27 05:22:00,
2013-12-26 23:37:00,32.4,28.0,30.32,SW,228,0.0,1.0,84,0.00,,,0.00,weatherlink.com 1.10,2013-12-27 05:37:00,
2013-12-26 23:52:00,31.8,28.0,30.32,SSE,155,1.0,5.0,85,0.00,,,0.00,weatherlink.com 1.10,2013-12-27 05:52:00,